sensor_id;sensor_type;location;lat;lon;timestamp;P1;durP1;ratioP1;P2;durP2;ratioP2
48205;SDS011;33995;48.202;16.260;2022-07-04T00:01:55;3.70;;;3.30;;
48205;SDS011;33995;48.202;16.260;2022-07-04T00:04:25;3.60;;;3.30;;
48205;SDS011;33995;48.202;16.260;2022-07-04T00:06:57;3.93;;;3.43;;
48205;SDS011;33995;48.202;16.260;2022-07-04T00:09:25;4.13;;;3.30;;
48205;SDS011;33995;48.202;16.260;2022-07-04T00:11:54;3.90;;;3.50;;
48205;SDS011;33995;48.202;16.260;2022-07-04T00:14:24;3.47;;;3.20;;
48205;SDS011;33995;48.202;16.260;2022-07-04T00:16:55;3.50;;;3.20;;
48205;SDS011;33995;48.202;16.260;2022-07-04T00:19:25;3.33;;;3.00;;
48205;SDS011;33995;48.202;16.260;2022-07-04T00:21:55;3.60;;;3.30;;
48205;SDS011;33995;48.202;16.260;2022-07-04T00:24:24;3.43;;;3.17;;
48205;SDS011;33995;48.202;16.260;2022-07-04T00:26:54;4.33;;;3.40;;
48205;SDS011;33995;48.202;16.260;2022-07-04T00:29:25;3.80;;;3.33;;
48205;SDS011;33995;48.202;16.260;2022-07-04T00:31:58;3.60;;;3.30;;
48205;SDS011;33995;48.202;16.260;2022-07-04T00:34:28;3.50;;;3.20;;
48205;SDS011;33995;48.202;16.260;2022-07-04T00:37:08;4.27;;;3.43;;
48205;SDS011;33995;48.202;16.260;2022-07-04T00:39:41;3.70;;;3.40;;
48205;SDS011;33995;48.202;16.260;2022-07-04T00:42:25;3.50;;;3.30;;
48205;SDS011;33995;48.202;16.260;2022-07-04T00:44:56;3.70;;;3.40;;
48205;SDS011;33995;48.202;16.260;2022-07-04T00:47:25;3.70;;;3.40;;
48205;SDS011;33995;48.202;16.260;2022-07-04T00:49:54;3.63;;;3.33;;
48205;SDS011;33995;48.202;16.260;2022-07-04T00:52:25;3.70;;;3.40;;
48205;SDS011;33995;48.202;16.260;2022-07-04T00:54:53;3.73;;;3.47;;
48205;SDS011;33995;48.202;16.260;2022-07-04T00:57:24;3.83;;;3.53;;
48205;SDS011;33995;48.202;16.260;2022-07-04T00:59:57;4.10;;;3.47;;
48205;SDS011;33995;48.202;16.260;2022-07-04T01:02:25;3.70;;;3.40;;
48205;SDS011;33995;48.202;16.260;2022-07-04T01:04:55;3.50;;;3.30;;
48205;SDS011;33995;48.202;16.260;2022-07-04T01:07:28;3.30;;;3.10;;
48205;SDS011;33995;48.202;16.260;2022-07-04T01:10:07;3.60;;;3.27;;
48205;SDS011;33995;48.202;16.260;2022-07-04T01:12:39;3.40;;;3.20;;
48205;SDS011;33995;48.202;16.260;2022-07-04T01:15:11;3.80;;;3.50;;
48205;SDS011;33995;48.202;16.260;2022-07-04T01:17:45;4.10;;;3.20;;
48205;SDS011;33995;48.202;16.260;2022-07-04T01:20:21;4.20;;;3.63;;
48205;SDS011;33995;48.202;16.260;2022-07-04T01:22:53;3.70;;;3.40;;
48205;SDS011;33995;48.202;16.260;2022-07-04T01:25:25;3.60;;;3.30;;
48205;SDS011;33995;48.202;16.260;2022-07-04T01:27:57;5.07;;;3.50;;
48205;SDS011;33995;48.202;16.260;2022-07-04T01:30:29;3.50;;;3.20;;
48205;SDS011;33995;48.202;16.260;2022-07-04T01:33:01;3.90;;;3.50;;
48205;SDS011;33995;48.202;16.260;2022-07-04T01:35:31;3.60;;;3.30;;
48205;SDS011;33995;48.202;16.260;2022-07-04T01:38:03;3.50;;;3.20;;
48205;SDS011;33995;48.202;16.260;2022-07-04T01:40:35;4.07;;;3.67;;
48205;SDS011;33995;48.202;16.260;2022-07-04T01:43:17;3.93;;;3.30;;
48205;SDS011;33995;48.202;16.260;2022-07-04T01:45:45;3.50;;;3.20;;
48205;SDS011;33995;48.202;16.260;2022-07-04T01:48:19;3.70;;;3.40;;
48205;SDS011;33995;48.202;16.260;2022-07-04T01:50:50;3.07;;;2.87;;
48205;SDS011;33995;48.202;16.260;2022-07-04T01:53:35;4.07;;;3.50;;
48205;SDS011;33995;48.202;16.260;2022-07-04T01:56:12;4.10;;;3.70;;
48205;SDS011;33995;48.202;16.260;2022-07-04T01:58:41;3.47;;;3.10;;
48205;SDS011;33995;48.202;16.260;2022-07-04T02:01:12;3.53;;;3.27;;
48205;SDS011;33995;48.202;16.260;2022-07-04T02:04:03;3.93;;;3.33;;
48205;SDS011;33995;48.202;16.260;2022-07-04T02:06:35;3.40;;;3.20;;
48205;SDS011;33995;48.202;16.260;2022-07-04T02:09:03;3.77;;;3.40;;
48205;SDS011;33995;48.202;16.260;2022-07-04T02:11:46;3.80;;;3.50;;
48205;SDS011;33995;48.202;16.260;2022-07-04T02:14:37;3.77;;;3.47;;
48205;SDS011;33995;48.202;16.260;2022-07-04T02:17:13;3.40;;;3.20;;
48205;SDS011;33995;48.202;16.260;2022-07-04T02:19:41;3.73;;;3.43;;
48205;SDS011;33995;48.202;16.260;2022-07-04T02:22:13;3.70;;;3.30;;
48205;SDS011;33995;48.202;16.260;2022-07-04T02:24:43;3.47;;;3.27;;
48205;SDS011;33995;48.202;16.260;2022-07-04T02:27:11;3.90;;;3.50;;
48205;SDS011;33995;48.202;16.260;2022-07-04T02:29:41;3.73;;;3.43;;
48205;SDS011;33995;48.202;16.260;2022-07-04T02:32:23;3.73;;;3.43;;
48205;SDS011;33995;48.202;16.260;2022-07-04T02:34:53;3.90;;;3.60;;
48205;SDS011;33995;48.202;16.260;2022-07-04T02:37:27;3.80;;;3.50;;
48205;SDS011;33995;48.202;16.260;2022-07-04T02:39:58;4.10;;;3.70;;
48205;SDS011;33995;48.202;16.260;2022-07-04T02:42:31;3.70;;;3.40;;
48205;SDS011;33995;48.202;16.260;2022-07-04T02:45:03;3.80;;;3.50;;
48205;SDS011;33995;48.202;16.260;2022-07-04T02:47:33;3.77;;;3.47;;
48205;SDS011;33995;48.202;16.260;2022-07-04T02:50:02;3.80;;;3.50;;
48205;SDS011;33995;48.202;16.260;2022-07-04T02:52:39;3.30;;;3.10;;
48205;SDS011;33995;48.202;16.260;2022-07-04T02:55:11;4.47;;;3.43;;
48205;SDS011;33995;48.202;16.260;2022-07-04T02:57:41;5.23;;;3.70;;
48205;SDS011;33995;48.202;16.260;2022-07-04T03:00:13;3.67;;;3.37;;
48205;SDS011;33995;48.202;16.260;2022-07-04T03:02:46;4.60;;;3.30;;
48205;SDS011;33995;48.202;16.260;2022-07-04T03:05:30;3.63;;;3.33;;
48205;SDS011;33995;48.202;16.260;2022-07-04T03:08:03;3.53;;;3.23;;
48205;SDS011;33995;48.202;16.260;2022-07-04T03:10:34;4.00;;;3.60;;
48205;SDS011;33995;48.202;16.260;2022-07-04T03:13:17;3.67;;;3.37;;
48205;SDS011;33995;48.202;16.260;2022-07-04T03:15:49;3.73;;;3.47;;
48205;SDS011;33995;48.202;16.260;2022-07-04T03:18:23;3.60;;;3.30;;
48205;SDS011;33995;48.202;16.260;2022-07-04T03:20:53;3.80;;;3.50;;
48205;SDS011;33995;48.202;16.260;2022-07-04T03:23:26;4.43;;;3.60;;
48205;SDS011;33995;48.202;16.260;2022-07-04T03:26:01;3.70;;;3.40;;
48205;SDS011;33995;48.202;16.260;2022-07-04T03:28:32;4.20;;;3.73;;
48205;SDS011;33995;48.202;16.260;2022-07-04T03:31:04;3.70;;;3.40;;
48205;SDS011;33995;48.202;16.260;2022-07-04T03:33:33;3.80;;;3.50;;
48205;SDS011;33995;48.202;16.260;2022-07-04T03:36:02;3.70;;;3.40;;
48205;SDS011;33995;48.202;16.260;2022-07-04T03:38:33;3.90;;;3.50;;
48205;SDS011;33995;48.202;16.260;2022-07-04T03:41:06;4.47;;;3.70;;
48205;SDS011;33995;48.202;16.260;2022-07-04T03:43:41;4.07;;;3.70;;
48205;SDS011;33995;48.202;16.260;2022-07-04T03:46:12;4.23;;;3.90;;
48205;SDS011;33995;48.202;16.260;2022-07-04T03:48:42;3.90;;;3.60;;
48205;SDS011;33995;48.202;16.260;2022-07-04T03:51:12;3.97;;;3.67;;
48205;SDS011;33995;48.202;16.260;2022-07-04T03:53:57;3.87;;;3.57;;
48205;SDS011;33995;48.202;16.260;2022-07-04T03:56:26;3.90;;;3.50;;
48205;SDS011;33995;48.202;16.260;2022-07-04T03:58:54;4.03;;;3.70;;
48205;SDS011;33995;48.202;16.260;2022-07-04T04:01:38;3.77;;;3.47;;
48205;SDS011;33995;48.202;16.260;2022-07-04T04:04:10;4.10;;;3.80;;
48205;SDS011;33995;48.202;16.260;2022-07-04T04:07:00;4.00;;;3.70;;
48205;SDS011;33995;48.202;16.260;2022-07-04T04:09:31;4.10;;;3.80;;
48205;SDS011;33995;48.202;16.260;2022-07-04T04:12:07;4.07;;;3.77;;
48205;SDS011;33995;48.202;16.260;2022-07-04T04:14:41;4.00;;;3.70;;
48205;SDS011;33995;48.202;16.260;2022-07-04T04:17:15;3.63;;;3.33;;
48205;SDS011;33995;48.202;16.260;2022-07-04T04:19:43;4.10;;;3.70;;
48205;SDS011;33995;48.202;16.260;2022-07-04T04:22:11;3.60;;;3.30;;
48205;SDS011;33995;48.202;16.260;2022-07-04T04:24:41;5.43;;;3.73;;
48205;SDS011;33995;48.202;16.260;2022-07-04T04:27:12;3.73;;;3.43;;
48205;SDS011;33995;48.202;16.260;2022-07-04T04:29:43;3.53;;;3.23;;
48205;SDS011;33995;48.202;16.260;2022-07-04T04:32:14;3.73;;;3.40;;
48205;SDS011;33995;48.202;16.260;2022-07-04T04:34:44;4.00;;;3.70;;
48205;SDS011;33995;48.202;16.260;2022-07-04T04:37:13;3.87;;;3.57;;
48205;SDS011;33995;48.202;16.260;2022-07-04T04:39:41;3.90;;;3.60;;
48205;SDS011;33995;48.202;16.260;2022-07-04T04:42:17;4.03;;;3.73;;
48205;SDS011;33995;48.202;16.260;2022-07-04T04:44:49;4.00;;;3.70;;
48205;SDS011;33995;48.202;16.260;2022-07-04T04:47:22;4.00;;;3.50;;
48205;SDS011;33995;48.202;16.260;2022-07-04T04:49:54;3.77;;;3.47;;
48205;SDS011;33995;48.202;16.260;2022-07-04T04:52:24;3.63;;;3.33;;
48205;SDS011;33995;48.202;16.260;2022-07-04T04:54:56;3.60;;;3.30;;
48205;SDS011;33995;48.202;16.260;2022-07-04T04:57:35;4.43;;;3.70;;
48205;SDS011;33995;48.202;16.260;2022-07-04T05:00:05;3.80;;;3.50;;
48205;SDS011;33995;48.202;16.260;2022-07-04T05:02:38;4.13;;;3.47;;
48205;SDS011;33995;48.202;16.260;2022-07-04T05:05:08;3.50;;;3.20;;
48205;SDS011;33995;48.202;16.260;2022-07-04T05:07:40;3.50;;;3.10;;
48205;SDS011;33995;48.202;16.260;2022-07-04T05:10:10;3.23;;;3.03;;
48205;SDS011;33995;48.202;16.260;2022-07-04T05:12:39;3.30;;;3.10;;
48205;SDS011;33995;48.202;16.260;2022-07-04T05:15:14;3.77;;;3.30;;
48205;SDS011;33995;48.202;16.260;2022-07-04T05:17:48;3.50;;;3.20;;
48205;SDS011;33995;48.202;16.260;2022-07-04T05:20:16;3.40;;;3.10;;
48205;SDS011;33995;48.202;16.260;2022-07-04T05:22:51;3.33;;;3.00;;
48205;SDS011;33995;48.202;16.260;2022-07-04T05:25:22;3.90;;;3.13;;
48205;SDS011;33995;48.202;16.260;2022-07-04T05:27:58;3.43;;;3.17;;
48205;SDS011;33995;48.202;16.260;2022-07-04T05:30:34;3.57;;;3.17;;
48205;SDS011;33995;48.202;16.260;2022-07-04T05:33:18;3.63;;;3.33;;
48205;SDS011;33995;48.202;16.260;2022-07-04T05:35:47;5.03;;;3.10;;
48205;SDS011;33995;48.202;16.260;2022-07-04T05:38:19;4.70;;;3.10;;
48205;SDS011;33995;48.202;16.260;2022-07-04T05:40:48;3.63;;;3.20;;
48205;SDS011;33995;48.202;16.260;2022-07-04T05:43:20;3.43;;;3.00;;
48205;SDS011;33995;48.202;16.260;2022-07-04T05:46:02;3.53;;;3.00;;
48205;SDS011;33995;48.202;16.260;2022-07-04T05:48:35;3.50;;;3.20;;
48205;SDS011;33995;48.202;16.260;2022-07-04T05:51:05;3.43;;;3.17;;
48205;SDS011;33995;48.202;16.260;2022-07-04T05:53:33;3.97;;;3.10;;
48205;SDS011;33995;48.202;16.260;2022-07-04T05:56:08;4.83;;;3.00;;
48205;SDS011;33995;48.202;16.260;2022-07-04T05:58:42;3.40;;;3.10;;
48205;SDS011;33995;48.202;16.260;2022-07-04T06:01:18;3.30;;;3.10;;
48205;SDS011;33995;48.202;16.260;2022-07-04T06:03:48;3.57;;;3.27;;
48205;SDS011;33995;48.202;16.260;2022-07-04T06:06:19;3.53;;;3.20;;
48205;SDS011;33995;48.202;16.260;2022-07-04T06:08:51;3.73;;;3.30;;
48205;SDS011;33995;48.202;16.260;2022-07-04T06:11:21;3.37;;;3.07;;
48205;SDS011;33995;48.202;16.260;2022-07-04T06:13:50;3.57;;;3.27;;
48205;SDS011;33995;48.202;16.260;2022-07-04T06:16:23;3.60;;;3.10;;
48205;SDS011;33995;48.202;16.260;2022-07-04T06:18:51;4.03;;;3.07;;
48205;SDS011;33995;48.202;16.260;2022-07-04T06:21:20;3.70;;;2.90;;
48205;SDS011;33995;48.202;16.260;2022-07-04T06:24:03;3.80;;;3.00;;
48205;SDS011;33995;48.202;16.260;2022-07-04T06:26:47;4.03;;;3.17;;
48205;SDS011;33995;48.202;16.260;2022-07-04T06:29:16;3.90;;;3.20;;
48205;SDS011;33995;48.202;16.260;2022-07-04T06:31:49;4.50;;;3.10;;
48205;SDS011;33995;48.202;16.260;2022-07-04T06:34:20;3.67;;;3.37;;
48205;SDS011;33995;48.202;16.260;2022-07-04T06:37:13;3.50;;;3.20;;
48205;SDS011;33995;48.202;16.260;2022-07-04T06:39:45;3.80;;;3.47;;
48205;SDS011;33995;48.202;16.260;2022-07-04T06:42:17;4.97;;;3.60;;
48205;SDS011;33995;48.202;16.260;2022-07-04T06:44:53;3.50;;;3.20;;
48205;SDS011;33995;48.202;16.260;2022-07-04T06:47:23;3.90;;;3.47;;
48205;SDS011;33995;48.202;16.260;2022-07-04T06:49:53;3.53;;;3.20;;
48205;SDS011;33995;48.202;16.260;2022-07-04T06:52:36;3.80;;;3.50;;
48205;SDS011;33995;48.202;16.260;2022-07-04T06:55:07;6.63;;;3.10;;
48205;SDS011;33995;48.202;16.260;2022-07-04T06:57:38;3.90;;;3.13;;
48205;SDS011;33995;48.202;16.260;2022-07-04T07:00:09;4.13;;;3.20;;
48205;SDS011;33995;48.202;16.260;2022-07-04T07:02:52;5.03;;;3.00;;
48205;SDS011;33995;48.202;16.260;2022-07-04T07:05:37;3.50;;;3.20;;
48205;SDS011;33995;48.202;16.260;2022-07-04T07:08:29;3.50;;;3.20;;
48205;SDS011;33995;48.202;16.260;2022-07-04T07:10:59;3.20;;;3.00;;
48205;SDS011;33995;48.202;16.260;2022-07-04T07:13:44;3.83;;;3.20;;
48205;SDS011;33995;48.202;16.260;2022-07-04T07:16:16;3.93;;;3.00;;
48205;SDS011;33995;48.202;16.260;2022-07-04T07:18:47;4.10;;;3.13;;
48205;SDS011;33995;48.202;16.260;2022-07-04T07:21:20;4.07;;;3.73;;
48205;SDS011;33995;48.202;16.260;2022-07-04T07:23:48;4.00;;;3.63;;
48205;SDS011;33995;48.202;16.260;2022-07-04T07:26:21;3.70;;;3.20;;
48205;SDS011;33995;48.202;16.260;2022-07-04T07:28:50;4.20;;;3.00;;
48205;SDS011;33995;48.202;16.260;2022-07-04T07:31:20;3.40;;;3.10;;
48205;SDS011;33995;48.202;16.260;2022-07-04T07:33:49;3.37;;;3.17;;
48205;SDS011;33995;48.202;16.260;2022-07-04T07:36:23;3.00;;;2.80;;
48205;SDS011;33995;48.202;16.260;2022-07-04T07:38:54;5.37;;;2.60;;
48205;SDS011;33995;48.202;16.260;2022-07-04T07:41:24;3.30;;;2.40;;
48205;SDS011;33995;48.202;16.260;2022-07-04T07:43:57;2.43;;;2.20;;
48205;SDS011;33995;48.202;16.260;2022-07-04T07:46:26;3.47;;;2.70;;
48205;SDS011;33995;48.202;16.260;2022-07-04T07:48:58;2.40;;;2.20;;
48205;SDS011;33995;48.202;16.260;2022-07-04T07:51:30;4.50;;;2.30;;
48205;SDS011;33995;48.202;16.260;2022-07-04T07:54:00;3.10;;;2.27;;
48205;SDS011;33995;48.202;16.260;2022-07-04T07:56:48;2.60;;;2.10;;
48205;SDS011;33995;48.202;16.260;2022-07-04T07:59:21;2.20;;;2.00;;
48205;SDS011;33995;48.202;16.260;2022-07-04T08:01:49;3.37;;;2.13;;
48205;SDS011;33995;48.202;16.260;2022-07-04T08:04:17;2.10;;;2.00;;
48205;SDS011;33995;48.202;16.260;2022-07-04T08:07:06;3.57;;;1.90;;
48205;SDS011;33995;48.202;16.260;2022-07-04T08:09:49;3.00;;;2.00;;
48205;SDS011;33995;48.202;16.260;2022-07-04T08:12:20;2.37;;;1.90;;
48205;SDS011;33995;48.202;16.260;2022-07-04T08:14:48;2.20;;;1.90;;
48205;SDS011;33995;48.202;16.260;2022-07-04T08:17:18;2.10;;;1.93;;
48205;SDS011;33995;48.202;16.260;2022-07-04T08:19:52;2.00;;;1.90;;
48205;SDS011;33995;48.202;16.260;2022-07-04T08:22:21;2.10;;;1.90;;
48205;SDS011;33995;48.202;16.260;2022-07-04T08:24:49;2.10;;;1.90;;
48205;SDS011;33995;48.202;16.260;2022-07-04T08:27:22;2.30;;;2.00;;
48205;SDS011;33995;48.202;16.260;2022-07-04T08:29:59;2.00;;;1.80;;
48205;SDS011;33995;48.202;16.260;2022-07-04T08:32:28;2.57;;;2.00;;
48205;SDS011;33995;48.202;16.260;2022-07-04T08:35:05;2.03;;;1.80;;
48205;SDS011;33995;48.202;16.260;2022-07-04T08:37:38;2.40;;;2.00;;
48205;SDS011;33995;48.202;16.260;2022-07-04T08:40:12;3.30;;;2.10;;
48205;SDS011;33995;48.202;16.260;2022-07-04T08:42:43;2.10;;;1.90;;
48205;SDS011;33995;48.202;16.260;2022-07-04T08:45:12;3.03;;;2.10;;
48205;SDS011;33995;48.202;16.260;2022-07-04T08:47:58;2.20;;;1.90;;
48205;SDS011;33995;48.202;16.260;2022-07-04T08:50:35;2.47;;;2.00;;
48205;SDS011;33995;48.202;16.260;2022-07-04T08:53:13;3.13;;;2.03;;
48205;SDS011;33995;48.202;16.260;2022-07-04T08:55:48;2.10;;;2.00;;
48205;SDS011;33995;48.202;16.260;2022-07-04T08:58:36;2.97;;;2.00;;
48205;SDS011;33995;48.202;16.260;2022-07-04T09:01:07;2.30;;;2.00;;
48205;SDS011;33995;48.202;16.260;2022-07-04T09:03:43;2.40;;;1.80;;
48205;SDS011;33995;48.202;16.260;2022-07-04T09:06:18;2.70;;;2.03;;
48205;SDS011;33995;48.202;16.260;2022-07-04T09:08:50;2.07;;;1.87;;
48205;SDS011;33995;48.202;16.260;2022-07-04T09:11:21;3.00;;;2.20;;
48205;SDS011;33995;48.202;16.260;2022-07-04T09:13:50;2.17;;;1.97;;
48205;SDS011;33995;48.202;16.260;2022-07-04T09:16:23;2.60;;;2.20;;
48205;SDS011;33995;48.202;16.260;2022-07-04T09:18:54;2.13;;;2.03;;
48205;SDS011;33995;48.202;16.260;2022-07-04T09:21:23;4.53;;;2.00;;
48205;SDS011;33995;48.202;16.260;2022-07-04T09:24:15;2.57;;;2.00;;
48205;SDS011;33995;48.202;16.260;2022-07-04T09:27:07;2.20;;;2.00;;
48205;SDS011;33995;48.202;16.260;2022-07-04T09:29:54;2.47;;;1.90;;
48205;SDS011;33995;48.202;16.260;2022-07-04T09:32:34;3.07;;;2.20;;
48205;SDS011;33995;48.202;16.260;2022-07-04T09:35:20;2.87;;;2.17;;
48205;SDS011;33995;48.202;16.260;2022-07-04T09:37:56;4.47;;;2.20;;
48205;SDS011;33995;48.202;16.260;2022-07-04T09:40:31;2.40;;;2.20;;
48205;SDS011;33995;48.202;16.260;2022-07-04T09:43:02;2.97;;;2.10;;
48205;SDS011;33995;48.202;16.260;2022-07-04T09:46:03;2.97;;;2.23;;
48205;SDS011;33995;48.202;16.260;2022-07-04T09:48:50;2.90;;;2.30;;
48205;SDS011;33995;48.202;16.260;2022-07-04T09:54:27;2.90;;;2.10;;
48205;SDS011;33995;48.202;16.260;2022-07-04T09:57:03;6.00;;;2.33;;
48205;SDS011;33995;48.202;16.260;2022-07-04T09:59:33;3.50;;;2.30;;
48205;SDS011;33995;48.202;16.260;2022-07-04T10:02:15;3.57;;;2.53;;
48205;SDS011;33995;48.202;16.260;2022-07-04T10:04:49;2.70;;;2.37;;
48205;SDS011;33995;48.202;16.260;2022-07-04T10:07:38;2.40;;;2.20;;
48205;SDS011;33995;48.202;16.260;2022-07-04T10:13:12;2.90;;;2.20;;
48205;SDS011;33995;48.202;16.260;2022-07-04T10:15:53;2.50;;;2.30;;
48205;SDS011;33995;48.202;16.260;2022-07-04T10:18:24;3.63;;;2.73;;
48205;SDS011;33995;48.202;16.260;2022-07-04T10:20:56;3.50;;;2.60;;
48205;SDS011;33995;48.202;16.260;2022-07-04T10:23:29;2.80;;;2.50;;
48205;SDS011;33995;48.202;16.260;2022-07-04T10:26:10;3.37;;;2.00;;
48205;SDS011;33995;48.202;16.260;2022-07-04T10:28:39;3.27;;;2.30;;
48205;SDS011;33995;48.202;16.260;2022-07-04T10:31:14;2.50;;;2.30;;
48205;SDS011;33995;48.202;16.260;2022-07-04T10:33:43;2.40;;;2.20;;
48205;SDS011;33995;48.202;16.260;2022-07-04T10:36:21;2.57;;;2.20;;
48205;SDS011;33995;48.202;16.260;2022-07-04T10:39:07;2.33;;;2.13;;
48205;SDS011;33995;48.202;16.260;2022-07-04T10:41:38;2.30;;;2.10;;
48205;SDS011;33995;48.202;16.260;2022-07-04T10:44:27;2.50;;;2.30;;
48205;SDS011;33995;48.202;16.260;2022-07-04T10:47:06;2.60;;;2.40;;
48205;SDS011;33995;48.202;16.260;2022-07-04T10:50:00;2.73;;;2.10;;
48205;SDS011;33995;48.202;16.260;2022-07-04T10:52:33;2.53;;;2.03;;
48205;SDS011;33995;48.202;16.260;2022-07-04T10:55:11;2.40;;;2.20;;
48205;SDS011;33995;48.202;16.260;2022-07-04T10:57:40;3.50;;;3.20;;
48205;SDS011;33995;48.202;16.260;2022-07-04T11:00:09;2.77;;;2.57;;
48205;SDS011;33995;48.202;16.260;2022-07-04T11:02:46;2.60;;;2.37;;
48205;SDS011;33995;48.202;16.260;2022-07-04T11:05:19;2.60;;;2.40;;
48205;SDS011;33995;48.202;16.260;2022-07-04T11:08:03;2.30;;;2.10;;
48205;SDS011;33995;48.202;16.260;2022-07-04T11:10:36;2.87;;;2.30;;
48205;SDS011;33995;48.202;16.260;2022-07-04T11:13:19;2.40;;;2.20;;
48205;SDS011;33995;48.202;16.260;2022-07-04T11:16:03;2.37;;;2.17;;
48205;SDS011;33995;48.202;16.260;2022-07-04T11:18:39;2.60;;;2.07;;
48205;SDS011;33995;48.202;16.260;2022-07-04T11:21:27;2.30;;;2.10;;
48205;SDS011;33995;48.202;16.260;2022-07-04T11:24:00;2.50;;;2.30;;
48205;SDS011;33995;48.202;16.260;2022-07-04T11:26:28;2.80;;;2.40;;
48205;SDS011;33995;48.202;16.260;2022-07-04T11:29:00;2.83;;;2.40;;
48205;SDS011;33995;48.202;16.260;2022-07-04T11:31:35;2.40;;;2.20;;
48205;SDS011;33995;48.202;16.260;2022-07-04T11:34:11;2.50;;;2.30;;
48205;SDS011;33995;48.202;16.260;2022-07-04T11:36:44;2.80;;;2.60;;
48205;SDS011;33995;48.202;16.260;2022-07-04T11:39:19;2.97;;;2.50;;
48205;SDS011;33995;48.202;16.260;2022-07-04T11:41:50;3.60;;;2.37;;
48205;SDS011;33995;48.202;16.260;2022-07-04T11:44:43;2.80;;;2.60;;
48205;SDS011;33995;48.202;16.260;2022-07-04T11:47:34;2.47;;;2.27;;
48205;SDS011;33995;48.202;16.260;2022-07-04T11:50:13;2.60;;;2.30;;
48205;SDS011;33995;48.202;16.260;2022-07-04T11:52:49;3.13;;;2.33;;
48205;SDS011;33995;48.202;16.260;2022-07-04T11:55:54;2.80;;;2.50;;
48205;SDS011;33995;48.202;16.260;2022-07-04T11:58:24;2.73;;;2.37;;
48205;SDS011;33995;48.202;16.260;2022-07-04T12:00:56;3.17;;;2.53;;
48205;SDS011;33995;48.202;16.260;2022-07-04T12:03:25;3.50;;;2.50;;
48205;SDS011;33995;48.202;16.260;2022-07-04T12:06:02;2.60;;;2.40;;
48205;SDS011;33995;48.202;16.260;2022-07-04T12:08:42;3.47;;;2.47;;
48205;SDS011;33995;48.202;16.260;2022-07-04T12:11:14;2.40;;;2.20;;
48205;SDS011;33995;48.202;16.260;2022-07-04T12:13:45;2.47;;;2.27;;
48205;SDS011;33995;48.202;16.260;2022-07-04T12:16:14;2.50;;;2.30;;
48205;SDS011;33995;48.202;16.260;2022-07-04T12:18:46;2.40;;;2.10;;
48205;SDS011;33995;48.202;16.260;2022-07-04T12:21:16;2.43;;;2.23;;
48205;SDS011;33995;48.202;16.260;2022-07-04T12:23:53;2.57;;;2.37;;
48205;SDS011;33995;48.202;16.260;2022-07-04T12:26:33;2.90;;;2.40;;
48205;SDS011;33995;48.202;16.260;2022-07-04T12:29:25;2.30;;;2.20;;
48205;SDS011;33995;48.202;16.260;2022-07-04T12:32:01;2.57;;;2.30;;
48205;SDS011;33995;48.202;16.260;2022-07-04T12:34:35;2.60;;;2.40;;
48205;SDS011;33995;48.202;16.260;2022-07-04T12:37:11;2.53;;;2.33;;
48205;SDS011;33995;48.202;16.260;2022-07-04T12:39:41;4.83;;;2.30;;
48205;SDS011;33995;48.202;16.260;2022-07-04T12:42:16;2.57;;;2.37;;
48205;SDS011;33995;48.202;16.260;2022-07-04T12:45:04;4.43;;;2.40;;
48205;SDS011;33995;48.202;16.260;2022-07-04T12:47:35;2.50;;;2.30;;
48205;SDS011;33995;48.202;16.260;2022-07-04T12:50:24;2.23;;;2.10;;
48205;SDS011;33995;48.202;16.260;2022-07-04T12:52:57;2.37;;;2.27;;
48205;SDS011;33995;48.202;16.260;2022-07-04T12:55:30;2.50;;;2.30;;
48205;SDS011;33995;48.202;16.260;2022-07-04T12:58:23;2.50;;;2.30;;
48205;SDS011;33995;48.202;16.260;2022-07-04T13:00:55;2.77;;;2.33;;
48205;SDS011;33995;48.202;16.260;2022-07-04T13:03:22;3.43;;;2.40;;
48205;SDS011;33995;48.202;16.260;2022-07-04T13:05:59;3.53;;;2.40;;
48205;SDS011;33995;48.202;16.260;2022-07-04T13:08:34;2.40;;;2.20;;
48205;SDS011;33995;48.202;16.260;2022-07-04T13:11:18;2.83;;;2.40;;
48205;SDS011;33995;48.202;16.260;2022-07-04T13:14:09;2.63;;;2.43;;
48205;SDS011;33995;48.202;16.260;2022-07-04T13:16:41;2.60;;;2.40;;
48205;SDS011;33995;48.202;16.260;2022-07-04T13:19:09;2.40;;;2.20;;
48205;SDS011;33995;48.202;16.260;2022-07-04T13:21:42;2.43;;;2.20;;
48205;SDS011;33995;48.202;16.260;2022-07-04T13:24:17;2.60;;;2.40;;
48205;SDS011;33995;48.202;16.260;2022-07-04T13:26:48;3.23;;;2.30;;
48205;SDS011;33995;48.202;16.260;2022-07-04T13:29:16;2.30;;;2.10;;
48205;SDS011;33995;48.202;16.260;2022-07-04T13:31:51;2.53;;;2.20;;
48205;SDS011;33995;48.202;16.260;2022-07-04T13:34:22;2.50;;;2.30;;
48205;SDS011;33995;48.202;16.260;2022-07-04T13:36:52;2.57;;;2.30;;
48205;SDS011;33995;48.202;16.260;2022-07-04T13:39:24;3.10;;;2.30;;
48205;SDS011;33995;48.202;16.260;2022-07-04T13:42:15;2.67;;;2.47;;
48205;SDS011;33995;48.202;16.260;2022-07-04T13:45:10;2.63;;;2.20;;
48205;SDS011;33995;48.202;16.260;2022-07-04T13:47:45;3.20;;;2.43;;
48205;SDS011;33995;48.202;16.260;2022-07-04T13:50:16;3.60;;;2.27;;
48205;SDS011;33995;48.202;16.260;2022-07-04T13:52:51;2.40;;;2.20;;
48205;SDS011;33995;48.202;16.260;2022-07-04T13:55:23;2.27;;;2.07;;
48205;SDS011;33995;48.202;16.260;2022-07-04T13:58:05;2.30;;;2.10;;
48205;SDS011;33995;48.202;16.260;2022-07-04T14:00:39;2.13;;;2.03;;
48205;SDS011;33995;48.202;16.260;2022-07-04T14:03:14;2.40;;;2.20;;
48205;SDS011;33995;48.202;16.260;2022-07-04T14:05:58;2.73;;;2.07;;
48205;SDS011;33995;48.202;16.260;2022-07-04T14:08:29;2.63;;;2.37;;
48205;SDS011;33995;48.202;16.260;2022-07-04T14:11:02;2.83;;;2.60;;
48205;SDS011;33995;48.202;16.260;2022-07-04T14:13:35;3.43;;;2.40;;
48205;SDS011;33995;48.202;16.260;2022-07-04T14:16:18;2.70;;;2.33;;
48205;SDS011;33995;48.202;16.260;2022-07-04T14:18:48;2.33;;;2.10;;
48205;SDS011;33995;48.202;16.260;2022-07-04T14:21:20;2.03;;;1.90;;
48205;SDS011;33995;48.202;16.260;2022-07-04T14:23:52;2.40;;;2.20;;
48205;SDS011;33995;48.202;16.260;2022-07-04T14:26:29;2.10;;;2.00;;
48205;SDS011;33995;48.202;16.260;2022-07-04T14:29:00;2.33;;;2.13;;
48205;SDS011;33995;48.202;16.260;2022-07-04T14:31:31;2.40;;;2.20;;
48205;SDS011;33995;48.202;16.260;2022-07-04T14:34:04;2.17;;;2.07;;
48205;SDS011;33995;48.202;16.260;2022-07-04T14:36:38;2.20;;;2.00;;
48205;SDS011;33995;48.202;16.260;2022-07-04T14:39:08;2.37;;;2.20;;
48205;SDS011;33995;48.202;16.260;2022-07-04T14:41:39;2.13;;;2.03;;
48205;SDS011;33995;48.202;16.260;2022-07-04T14:44:22;4.40;;;2.00;;
48205;SDS011;33995;48.202;16.260;2022-07-04T14:46:51;2.37;;;2.17;;
48205;SDS011;33995;48.202;16.260;2022-07-04T14:49:34;2.17;;;2.03;;
48205;SDS011;33995;48.202;16.260;2022-07-04T14:52:13;2.57;;;2.00;;
48205;SDS011;33995;48.202;16.260;2022-07-04T14:54:42;2.20;;;2.00;;
48205;SDS011;33995;48.202;16.260;2022-07-04T14:57:10;2.13;;;1.93;;
48205;SDS011;33995;48.202;16.260;2022-07-04T14:59:43;2.87;;;1.90;;
48205;SDS011;33995;48.202;16.260;2022-07-04T15:02:27;2.03;;;1.90;;
48205;SDS011;33995;48.202;16.260;2022-07-04T15:04:57;2.00;;;1.90;;
48205;SDS011;33995;48.202;16.260;2022-07-04T15:07:28;1.90;;;1.80;;
48205;SDS011;33995;48.202;16.260;2022-07-04T15:10:11;2.00;;;1.70;;
48205;SDS011;33995;48.202;16.260;2022-07-04T15:12:42;2.07;;;1.70;;
48205;SDS011;33995;48.202;16.260;2022-07-04T15:15:18;1.70;;;1.60;;
48205;SDS011;33995;48.202;16.260;2022-07-04T15:18:10;1.63;;;1.53;;
48205;SDS011;33995;48.202;16.260;2022-07-04T15:20:41;1.60;;;1.50;;
48205;SDS011;33995;48.202;16.260;2022-07-04T15:23:32;2.90;;;1.60;;